createdAt,value
2023-04-02T00:02:23.715Z,100.00
2023-04-02T00:13:12.357Z,100.00
2023-04-02T00:18:18.376Z,100.00
2023-04-02T00:23:19.998Z,100.00
2023-04-02T00:28:33.863Z,100.00
2023-04-02T00:33:35.542Z,100.00
2023-04-02T00:44:12.654Z,100.00
2023-04-02T00:49:31.597Z,100.00
2023-04-02T00:55:10.296Z,100.00
2023-04-02T01:00:19.793Z,100.00
2023-04-02T01:05:23.546Z,100.00
2023-04-02T01:10:59.136Z,100.00
2023-04-02T01:16:31.050Z,100.00
2023-04-02T01:21:54.686Z,100.00
2023-04-02T01:27:08.376Z,100.00
2023-04-02T01:32:14.498Z,100.00
2023-04-02T01:37:37.768Z,100.00
2023-04-02T01:42:50.527Z,100.00
2023-04-02T01:47:52.653Z,100.00
2023-04-02T01:52:56.523Z,100.00
2023-04-02T01:58:00.245Z,100.00
2023-04-02T02:03:03.425Z,100.00
2023-04-02T02:08:34.614Z,100.00
2023-04-02T02:13:36.826Z,100.00
2023-04-02T02:18:38.657Z,100.00
2023-04-02T02:23:40.360Z,100.00
2023-04-02T02:28:43.341Z,100.00
2023-04-02T02:33:53.100Z,100.00
2023-04-02T02:39:23.707Z,100.00
2023-04-02T02:44:32.356Z,100.00
2023-04-02T02:49:41.178Z,100.00
2023-04-02T02:54:56.665Z,100.00
2023-04-02T03:00:01.661Z,100.00
2023-04-02T03:05:04.920Z,100.00
2023-04-02T03:10:39.538Z,100.00
2023-04-02T03:15:59.523Z,100.00
2023-04-02T03:21:19.103Z,100.00
2023-04-02T03:26:32.535Z,100.00
2023-04-02T03:31:39.759Z,100.00
2023-04-02T03:36:51.143Z,100.00
2023-04-02T03:42:18.244Z,100.00
2023-04-02T03:47:42.533Z,100.00
2023-04-02T03:52:45.149Z,100.00
2023-04-02T03:58:04.330Z,100.00
2023-04-02T04:03:17.032Z,100.00
2023-04-02T04:08:27.083Z,100.00
2023-04-02T04:13:36.860Z,100.00
2023-04-02T04:18:49.993Z,100.00
2023-04-02T04:23:51.778Z,100.00
2023-04-02T04:29:38.264Z,100.00
2023-04-02T04:34:53.312Z,100.00
2023-04-02T04:40:05.900Z,100.00
2023-04-02T04:45:27.022Z,100.00
2023-04-02T04:50:43.599Z,100.00
2023-04-02T04:55:47.405Z,100.00
2023-04-02T05:01:05.236Z,100.00
2023-04-02T05:06:33.245Z,100.00
2023-04-02T05:11:46.866Z,100.00
2023-04-02T05:17:06.570Z,100.00
2023-04-02T05:34:29.529Z,100.00
2023-04-02T05:39:32.917Z,100.00
2023-04-02T05:46:04.910Z,100.00
2023-04-02T05:50:47.054Z,100.00
2023-04-02T05:55:51.398Z,100.00
2023-04-02T06:01:17.595Z,100.00
2023-04-02T06:12:53.972Z,100.00
2023-04-02T06:18:01.748Z,100.00
2023-04-02T06:23:06.345Z,100.00
2023-04-02T06:28:14.601Z,100.00
2023-04-02T06:33:16.544Z,100.00
2023-04-02T06:38:27.008Z,100.00
2023-04-02T06:43:37.383Z,100.00
2023-04-02T06:48:41.881Z,100.00
2023-04-02T06:53:47.085Z,100.00
2023-04-02T06:58:48.811Z,100.00
2023-04-02T07:03:50.552Z,100.00
2023-04-02T07:08:52.181Z,100.00
2023-04-02T07:13:53.811Z,100.00
2023-04-02T07:18:58.576Z,100.00
2023-04-02T07:24:00.373Z,100.00
2023-04-02T07:29:01.939Z,100.00
2023-04-02T07:34:04.356Z,100.00
2023-04-02T07:39:05.942Z,100.00
2023-04-02T07:44:07.444Z,100.00
2023-04-02T07:49:08.988Z,100.00
2023-04-02T07:54:11.253Z,100.00
2023-04-02T07:59:39.481Z,100.00
2023-04-02T08:04:45.212Z,100.00
2023-04-02T08:09:47.926Z,100.00
2023-04-02T08:14:49.486Z,99.81
2023-04-02T08:19:55.030Z,96.37
2023-04-02T08:24:57.325Z,96.81
2023-04-02T08:29:59.186Z,92.85
2023-04-02T08:35:00.881Z,94.91
2023-04-02T08:40:03.760Z,94.43
2023-04-02T08:45:32.308Z,94.85
2023-04-02T08:50:37.619Z,93.00
2023-04-02T08:55:48.410Z,91.71
2023-04-02T09:00:54.486Z,92.37
2023-04-02T09:05:57.526Z,91.22
2023-04-02T09:11:29.734Z,87.55
2023-04-02T09:22:50.607Z,89.63
2023-04-02T09:33:12.574Z,88.21
2023-04-02T09:38:20.308Z,88.31
2023-04-02T09:43:28.178Z,88.81
2023-04-02T09:48:34.479Z,86.10
2023-04-02T09:53:42.614Z,85.47
2023-04-02T09:58:46.136Z,87.33
2023-04-02T10:04:08.171Z,86.20
2023-04-02T10:09:42.240Z,87.25
2023-04-02T10:20:55.766Z,84.08
2023-04-02T10:26:10.280Z,85.35
2023-04-02T10:31:34.891Z,83.72
2023-04-02T10:36:50.788Z,85.30
2023-04-02T10:42:13.128Z,85.80
2023-04-02T10:47:22.637Z,84.90
2023-04-02T10:52:35.465Z,83.89
2023-04-02T10:57:56.472Z,83.80
2023-04-02T11:03:33.053Z,82.53
2023-04-02T11:08:48.624Z,82.35
2023-04-02T11:13:53.384Z,81.80
2023-04-02T11:19:16.890Z,83.14
2023-04-02T11:24:46.052Z,81.01
2023-04-02T11:30:04.089Z,80.33
2023-04-02T11:35:24.924Z,79.87
2023-04-02T11:40:46.094Z,77.90
2023-04-02T11:45:54.994Z,78.18
2023-04-02T11:57:35.128Z,75.79
2023-04-02T12:03:15.724Z,75.00
2023-04-02T12:08:47.452Z,74.57
2023-04-02T12:20:56.481Z,73.61
2023-04-02T12:26:29.087Z,72.57
2023-04-02T12:37:38.880Z,75.51
2023-04-02T12:48:23.682Z,75.09
2023-04-02T12:53:51.945Z,74.90
2023-04-02T12:59:02.146Z,74.12
2023-04-02T13:04:17.728Z,75.68
2023-04-02T13:15:43.254Z,74.13
2023-04-02T13:21:05.185Z,76.41
2023-04-02T13:26:32.810Z,75.38
2023-04-02T13:31:34.699Z,73.26
2023-04-02T13:36:59.856Z,72.54
2023-04-02T13:42:03.079Z,73.24
2023-04-02T13:47:32.404Z,74.94
2023-04-02T13:52:34.069Z,75.47
2023-04-02T13:57:36.398Z,74.45
2023-04-02T14:02:51.717Z,74.02
2023-04-02T14:08:08.417Z,72.73
2023-04-02T14:13:29.162Z,73.98
2023-04-02T14:18:49.723Z,75.56
2023-04-02T14:24:13.556Z,74.72
2023-04-02T14:29:41.436Z,74.20
2023-04-02T14:34:52.113Z,74.71
2023-04-02T14:40:27.525Z,72.81
2023-04-02T14:46:02.778Z,74.23
2023-04-02T14:51:40.718Z,72.21
2023-04-02T14:56:52.442Z,72.56
2023-04-02T15:02:00.731Z,72.75
2023-04-02T15:07:10.480Z,72.75
2023-04-02T15:12:22.565Z,73.53
2023-04-02T15:17:24.895Z,72.55
2023-04-02T15:22:41.587Z,71.89
2023-04-02T15:28:33.563Z,72.79
2023-04-02T15:33:37.961Z,73.76
2023-04-02T15:38:44.012Z,71.99
2023-04-02T15:43:57.747Z,72.08
2023-04-02T15:49:18.013Z,72.94
2023-04-02T15:54:28.742Z,73.48
2023-04-02T15:59:36.419Z,72.27
2023-04-02T16:04:49.741Z,71.33
2023-04-02T16:10:00.074Z,71.05
2023-04-02T16:15:26.120Z,71.60
2023-04-02T16:20:41.668Z,75.17
2023-04-02T16:26:03.339Z,78.50
2023-04-02T16:31:14.064Z,80.51
2023-04-02T16:36:21.531Z,82.38
2023-04-02T16:41:30.009Z,83.08
2023-04-02T16:46:41.008Z,82.32
2023-04-02T16:51:49.362Z,81.43
2023-04-02T16:57:49.521Z,81.99
2023-04-02T17:03:16.596Z,83.02
2023-04-02T17:08:30.309Z,85.14
2023-04-02T17:13:37.647Z,86.38
2023-04-02T17:18:43.266Z,86.10
2023-04-02T17:24:17.326Z,86.45
2023-04-02T17:29:40.661Z,87.19
2023-04-02T17:34:42.205Z,87.95
2023-04-02T17:39:59.557Z,87.46
2023-04-02T17:45:11.976Z,86.55
2023-04-02T17:50:41.356Z,85.31
2023-04-02T17:56:17.473Z,85.85
2023-04-02T18:01:30.055Z,85.68
2023-04-02T18:06:45.394Z,84.77
2023-04-02T18:12:05.417Z,85.27
2023-04-02T18:17:25.671Z,85.76
2023-04-02T18:23:02.326Z,85.07
2023-04-02T18:28:15.783Z,84.79
2023-04-02T18:33:33.812Z,84.71
2023-04-02T18:38:52.424Z,85.52
2023-04-02T18:44:20.838Z,85.67
2023-04-02T18:49:38.003Z,85.31
2023-04-02T18:54:44.325Z,86.31
2023-04-02T19:00:02.763Z,86.58
2023-04-02T19:05:17.622Z,86.82
2023-04-02T19:10:30.972Z,87.18
2023-04-02T19:16:02.541Z,87.70
2023-04-02T19:21:21.421Z,88.96
2023-04-02T19:26:34.976Z,91.96
2023-04-02T19:31:55.590Z,94.58
2023-04-02T19:37:04.154Z,96.17
2023-04-02T19:42:24.405Z,97.37
2023-04-02T19:47:26.381Z,98.70
2023-04-02T19:52:27.958Z,99.73
2023-04-02T19:57:29.549Z,100.00
2023-04-02T20:02:31.320Z,100.00
2023-04-02T20:07:32.800Z,100.00
2023-04-02T20:12:34.359Z,100.00
2023-04-02T20:17:35.964Z,100.00
2023-04-02T20:22:37.526Z,98.87
2023-04-02T20:27:39.131Z,96.43
2023-04-02T20:32:41.247Z,94.88
2023-04-02T20:37:43.146Z,91.26
2023-04-02T20:42:44.671Z,89.24
2023-04-02T20:47:46.397Z,87.66
2023-04-02T20:52:48.105Z,85.96
2023-04-02T20:57:49.668Z,86.09
2023-04-02T21:02:51.221Z,85.87
2023-04-02T21:07:52.791Z,85.34
2023-04-02T21:12:54.350Z,85.28
2023-04-02T21:17:55.923Z,84.40
2023-04-02T21:22:57.481Z,84.75
2023-04-02T21:27:59.500Z,84.60
2023-04-02T21:33:01.013Z,83.73
2023-04-02T21:38:02.549Z,84.29
2023-04-02T21:43:04.023Z,84.16
2023-04-02T21:48:05.656Z,84.01
2023-04-02T21:53:07.160Z,84.42
2023-04-02T21:58:08.689Z,84.40
2023-04-02T22:03:11.797Z,84.30
2023-04-02T22:08:15.599Z,84.80
2023-04-02T22:13:17.092Z,85.63
2023-04-02T22:18:18.602Z,86.93
2023-04-02T22:23:20.644Z,87.95
2023-04-02T22:28:22.860Z,89.44
2023-04-02T22:33:25.510Z,89.99
2023-04-02T22:38:27.544Z,91.00
2023-04-02T22:43:29.069Z,90.01
2023-04-02T22:48:31.227Z,89.32
2023-04-02T22:53:32.926Z,88.73
2023-04-02T22:58:35.379Z,88.71
2023-04-02T23:03:43.130Z,88.02
2023-04-02T23:08:45.280Z,87.61
2023-04-02T23:13:48.650Z,87.47
2023-04-02T23:18:50.662Z,88.17
2023-04-02T23:23:52.247Z,87.88
2023-04-02T23:28:53.751Z,88.05
2023-04-02T23:33:55.782Z,87.91
2023-04-02T23:39:01.311Z,89.06
2023-04-02T23:44:03.476Z,87.87
2023-04-02T23:49:05.055Z,88.70
2023-04-02T23:54:06.559Z,89.84
2023-04-02T23:59:08.091Z,90.60
